sensor_id;sensor_type;location;lat;lon;timestamp;P1;durP1;ratioP1;P2;durP2;ratioP2
13973;SDS011;7060;43.770;4.008;2023-02-24T00:00:27;9.80;;;7.53;;
13973;SDS011;7060;43.770;4.008;2023-02-24T00:03:00;13.90;;;8.27;;
13973;SDS011;7060;43.770;4.008;2023-02-24T00:05:33;8.83;;;7.93;;
13973;SDS011;7060;43.770;4.008;2023-02-24T00:08:02;9.10;;;8.17;;
13973;SDS011;7060;43.770;4.008;2023-02-24T00:10:31;10.03;;;8.87;;
13973;SDS011;7060;43.770;4.008;2023-02-24T00:12:59;11.10;;;9.20;;
13973;SDS011;7060;43.770;4.008;2023-02-24T00:15:30;12.30;;;8.20;;
13973;SDS011;7060;43.770;4.008;2023-02-24T00:17:58;10.03;;;8.60;;
13973;SDS011;7060;43.770;4.008;2023-02-24T00:20:33;15.50;;;8.37;;
13973;SDS011;7060;43.770;4.008;2023-02-24T00:23:01;11.43;;;8.77;;
13973;SDS011;7060;43.770;4.008;2023-02-24T00:25:30;12.73;;;9.03;;
13973;SDS011;7060;43.770;4.008;2023-02-24T00:27:58;9.13;;;8.03;;
13973;SDS011;7060;43.770;4.008;2023-02-24T00:30:28;13.07;;;9.07;;
13973;SDS011;7060;43.770;4.008;2023-02-24T00:32:59;12.93;;;9.27;;
13973;SDS011;7060;43.770;4.008;2023-02-24T00:35:29;10.47;;;8.70;;
13973;SDS011;7060;43.770;4.008;2023-02-24T00:37:58;16.23;;;8.77;;
13973;SDS011;7060;43.770;4.008;2023-02-24T00:40:27;13.97;;;8.83;;
13973;SDS011;7060;43.770;4.008;2023-02-24T00:42:58;11.77;;;9.20;;
13973;SDS011;7060;43.770;4.008;2023-02-24T00:45:27;11.47;;;8.37;;
13973;SDS011;7060;43.770;4.008;2023-02-24T00:47:58;10.57;;;9.43;;
13973;SDS011;7060;43.770;4.008;2023-02-24T00:50:26;13.17;;;9.03;;
13973;SDS011;7060;43.770;4.008;2023-02-24T00:52:55;12.30;;;9.27;;
13973;SDS011;7060;43.770;4.008;2023-02-24T00:55:23;13.00;;;7.97;;
13973;SDS011;7060;43.770;4.008;2023-02-24T00:57:53;14.37;;;8.60;;
13973;SDS011;7060;43.770;4.008;2023-02-24T01:00:21;11.93;;;8.27;;
13973;SDS011;7060;43.770;4.008;2023-02-24T01:02:51;13.53;;;9.63;;
13973;SDS011;7060;43.770;4.008;2023-02-24T01:05:22;10.67;;;8.47;;
13973;SDS011;7060;43.770;4.008;2023-02-24T01:07:53;10.80;;;8.90;;
13973;SDS011;7060;43.770;4.008;2023-02-24T01:10:22;14.63;;;8.50;;
13973;SDS011;7060;43.770;4.008;2023-02-24T01:12:53;10.90;;;8.77;;
13973;SDS011;7060;43.770;4.008;2023-02-24T01:15:20;12.60;;;8.90;;
13973;SDS011;7060;43.770;4.008;2023-02-24T01:17:49;14.77;;;10.20;;
13973;SDS011;7060;43.770;4.008;2023-02-24T01:20:18;16.17;;;9.87;;
13973;SDS011;7060;43.770;4.008;2023-02-24T01:22:49;13.40;;;8.57;;
13973;SDS011;7060;43.770;4.008;2023-02-24T01:25:19;11.97;;;8.70;;
13973;SDS011;7060;43.770;4.008;2023-02-24T01:27:48;10.93;;;8.33;;
13973;SDS011;7060;43.770;4.008;2023-02-24T01:30:18;11.17;;;9.20;;
13973;SDS011;7060;43.770;4.008;2023-02-24T01:32:46;13.50;;;8.87;;
13973;SDS011;7060;43.770;4.008;2023-02-24T01:35:17;12.77;;;9.17;;
13973;SDS011;7060;43.770;4.008;2023-02-24T01:37:48;9.37;;;8.23;;
13973;SDS011;7060;43.770;4.008;2023-02-24T01:40:16;10.40;;;8.00;;
13973;SDS011;7060;43.770;4.008;2023-02-24T01:42:47;8.77;;;7.60;;
13973;SDS011;7060;43.770;4.008;2023-02-24T01:45:27;10.70;;;7.23;;
13973;SDS011;7060;43.770;4.008;2023-02-24T01:47:56;9.97;;;7.40;;
13973;SDS011;7060;43.770;4.008;2023-02-24T01:50:27;11.40;;;8.03;;
13973;SDS011;7060;43.770;4.008;2023-02-24T01:53:00;14.40;;;7.93;;
13973;SDS011;7060;43.770;4.008;2023-02-24T01:55:32;10.33;;;7.43;;
13973;SDS011;7060;43.770;4.008;2023-02-24T01:58:04;11.63;;;7.83;;
13973;SDS011;7060;43.770;4.008;2023-02-24T02:00:37;13.60;;;8.13;;
13973;SDS011;7060;43.770;4.008;2023-02-24T02:03:19;12.50;;;8.47;;
13973;SDS011;7060;43.770;4.008;2023-02-24T02:05:53;12.70;;;8.30;;
13973;SDS011;7060;43.770;4.008;2023-02-24T02:08:28;10.77;;;7.87;;
13973;SDS011;7060;43.770;4.008;2023-02-24T02:10:57;17.87;;;8.70;;
13973;SDS011;7060;43.770;4.008;2023-02-24T02:13:32;12.63;;;8.50;;
13973;SDS011;7060;43.770;4.008;2023-02-24T02:16:08;9.67;;;8.17;;
13973;SDS011;7060;43.770;4.008;2023-02-24T02:18:54;13.10;;;8.30;;
13973;SDS011;7060;43.770;4.008;2023-02-24T02:21:42;14.67;;;9.10;;
13973;SDS011;7060;43.770;4.008;2023-02-24T02:24:35;12.93;;;8.23;;
13973;SDS011;7060;43.770;4.008;2023-02-24T02:27:23;10.43;;;8.87;;
13973;SDS011;7060;43.770;4.008;2023-02-24T02:33:41;13.37;;;7.70;;
13973;SDS011;7060;43.770;4.008;2023-02-24T02:36:35;12.23;;;7.63;;
13973;SDS011;7060;43.770;4.008;2023-02-24T02:39:11;11.63;;;7.93;;
13973;SDS011;7060;43.770;4.008;2023-02-24T02:41:46;11.57;;;8.00;;
13973;SDS011;7060;43.770;4.008;2023-02-24T02:44:20;10.60;;;7.13;;
13973;SDS011;7060;43.770;4.008;2023-02-24T02:46:54;10.97;;;7.40;;
13973;SDS011;7060;43.770;4.008;2023-02-24T02:49:30;12.57;;;7.10;;
13973;SDS011;7060;43.770;4.008;2023-02-24T02:52:04;10.00;;;7.33;;
13973;SDS011;7060;43.770;4.008;2023-02-24T02:54:40;7.63;;;6.67;;
13973;SDS011;7060;43.770;4.008;2023-02-24T02:57:16;8.70;;;7.10;;
13973;SDS011;7060;43.770;4.008;2023-02-24T02:59:50;12.10;;;7.73;;
13973;SDS011;7060;43.770;4.008;2023-02-24T03:02:25;9.77;;;7.20;;
13973;SDS011;7060;43.770;4.008;2023-02-24T03:05:08;10.33;;;6.97;;
13973;SDS011;7060;43.770;4.008;2023-02-24T03:07:44;11.27;;;7.37;;
13973;SDS011;7060;43.770;4.008;2023-02-24T03:10:18;12.37;;;7.00;;
13973;SDS011;7060;43.770;4.008;2023-02-24T03:12:49;9.37;;;7.03;;
13973;SDS011;7060;43.770;4.008;2023-02-24T03:15:22;9.33;;;7.37;;
13973;SDS011;7060;43.770;4.008;2023-02-24T03:17:55;10.60;;;7.77;;
13973;SDS011;7060;43.770;4.008;2023-02-24T03:20:30;10.97;;;6.87;;
13973;SDS011;7060;43.770;4.008;2023-02-24T03:23:03;12.03;;;7.53;;
13973;SDS011;7060;43.770;4.008;2023-02-24T03:25:41;9.83;;;7.00;;
13973;SDS011;7060;43.770;4.008;2023-02-24T03:28:17;11.93;;;7.80;;
13973;SDS011;7060;43.770;4.008;2023-02-24T03:30:57;11.53;;;7.23;;
13973;SDS011;7060;43.770;4.008;2023-02-24T03:33:31;9.53;;;7.03;;
13973;SDS011;7060;43.770;4.008;2023-02-24T03:36:08;12.87;;;7.33;;
13973;SDS011;7060;43.770;4.008;2023-02-24T03:38:40;10.53;;;7.40;;
13973;SDS011;7060;43.770;4.008;2023-02-24T03:41:16;10.60;;;7.40;;
13973;SDS011;7060;43.770;4.008;2023-02-24T03:43:45;10.03;;;7.30;;
13973;SDS011;7060;43.770;4.008;2023-02-24T03:46:17;10.83;;;8.17;;
13973;SDS011;7060;43.770;4.008;2023-02-24T03:48:47;11.33;;;8.17;;
13973;SDS011;7060;43.770;4.008;2023-02-24T03:51:23;13.40;;;8.37;;
13973;SDS011;7060;43.770;4.008;2023-02-24T03:53:59;9.57;;;6.97;;
13973;SDS011;7060;43.770;4.008;2023-02-24T03:56:43;12.47;;;7.77;;
13973;SDS011;7060;43.770;4.008;2023-02-24T03:59:25;14.93;;;8.67;;
13973;SDS011;7060;43.770;4.008;2023-02-24T04:02:05;15.70;;;8.70;;
13973;SDS011;7060;43.770;4.008;2023-02-24T04:04:48;11.70;;;8.77;;
13973;SDS011;7060;43.770;4.008;2023-02-24T04:07:34;11.20;;;7.87;;
13973;SDS011;7060;43.770;4.008;2023-02-24T04:10:09;12.10;;;8.23;;
13973;SDS011;7060;43.770;4.008;2023-02-24T04:12:46;14.43;;;8.80;;
13973;SDS011;7060;43.770;4.008;2023-02-24T04:15:20;12.57;;;9.27;;
13973;SDS011;7060;43.770;4.008;2023-02-24T04:17:56;11.63;;;8.70;;
13973;SDS011;7060;43.770;4.008;2023-02-24T04:20:33;12.10;;;8.60;;
13973;SDS011;7060;43.770;4.008;2023-02-24T04:23:10;13.33;;;7.90;;
13973;SDS011;7060;43.770;4.008;2023-02-24T04:25:44;15.60;;;9.17;;
13973;SDS011;7060;43.770;4.008;2023-02-24T04:28:16;17.20;;;10.00;;
13973;SDS011;7060;43.770;4.008;2023-02-24T04:30:48;14.57;;;9.83;;
13973;SDS011;7060;43.770;4.008;2023-02-24T04:33:21;18.43;;;9.70;;
13973;SDS011;7060;43.770;4.008;2023-02-24T04:35:52;13.23;;;9.17;;
13973;SDS011;7060;43.770;4.008;2023-02-24T04:38:23;18.90;;;9.30;;
13973;SDS011;7060;43.770;4.008;2023-02-24T04:40:52;16.10;;;9.90;;
13973;SDS011;7060;43.770;4.008;2023-02-24T04:43:21;19.80;;;9.93;;
13973;SDS011;7060;43.770;4.008;2023-02-24T04:45:49;19.53;;;10.47;;
13973;SDS011;7060;43.770;4.008;2023-02-24T04:48:18;16.83;;;9.43;;
13973;SDS011;7060;43.770;4.008;2023-02-24T04:50:46;17.10;;;10.23;;
13973;SDS011;7060;43.770;4.008;2023-02-24T04:53:21;16.63;;;10.07;;
13973;SDS011;7060;43.770;4.008;2023-02-24T04:55:53;20.53;;;10.20;;
13973;SDS011;7060;43.770;4.008;2023-02-24T04:58:22;19.77;;;11.13;;
13973;SDS011;7060;43.770;4.008;2023-02-24T05:00:53;20.93;;;11.53;;
13973;SDS011;7060;43.770;4.008;2023-02-24T05:03:22;18.67;;;9.57;;
13973;SDS011;7060;43.770;4.008;2023-02-24T05:05:55;26.67;;;10.47;;
13973;SDS011;7060;43.770;4.008;2023-02-24T05:08:28;19.60;;;8.97;;
13973;SDS011;7060;43.770;4.008;2023-02-24T05:10:57;21.83;;;8.97;;
13973;SDS011;7060;43.770;4.008;2023-02-24T05:13:30;19.17;;;9.57;;
13973;SDS011;7060;43.770;4.008;2023-02-24T05:16:02;23.70;;;9.67;;
13973;SDS011;7060;43.770;4.008;2023-02-24T05:18:33;22.10;;;10.27;;
13973;SDS011;7060;43.770;4.008;2023-02-24T05:21:03;26.90;;;10.63;;
13973;SDS011;7060;43.770;4.008;2023-02-24T05:23:52;21.27;;;10.50;;
13973;SDS011;7060;43.770;4.008;2023-02-24T05:26:21;22.30;;;9.37;;
13973;SDS011;7060;43.770;4.008;2023-02-24T05:28:51;21.20;;;11.30;;
13973;SDS011;7060;43.770;4.008;2023-02-24T05:31:23;28.17;;;9.97;;
13973;SDS011;7060;43.770;4.008;2023-02-24T05:33:54;24.93;;;8.70;;
13973;SDS011;7060;43.770;4.008;2023-02-24T05:36:24;19.50;;;8.93;;
13973;SDS011;7060;43.770;4.008;2023-02-24T05:38:57;22.30;;;9.80;;
13973;SDS011;7060;43.770;4.008;2023-02-24T05:41:33;17.87;;;9.40;;
13973;SDS011;7060;43.770;4.008;2023-02-24T05:44:05;23.70;;;9.53;;
13973;SDS011;7060;43.770;4.008;2023-02-24T05:46:35;21.60;;;10.17;;
13973;SDS011;7060;43.770;4.008;2023-02-24T05:49:07;26.07;;;11.47;;
13973;SDS011;7060;43.770;4.008;2023-02-24T05:51:40;18.87;;;9.87;;
13973;SDS011;7060;43.770;4.008;2023-02-24T05:54:22;23.10;;;10.23;;
13973;SDS011;7060;43.770;4.008;2023-02-24T05:56:56;20.93;;;9.77;;
13973;SDS011;7060;43.770;4.008;2023-02-24T05:59:26;22.83;;;10.67;;
13973;SDS011;7060;43.770;4.008;2023-02-24T06:01:58;21.20;;;9.97;;
13973;SDS011;7060;43.770;4.008;2023-02-24T06:04:33;25.30;;;10.30;;
13973;SDS011;7060;43.770;4.008;2023-02-24T06:07:13;19.10;;;9.07;;
13973;SDS011;7060;43.770;4.008;2023-02-24T06:09:47;18.37;;;8.73;;
13973;SDS011;7060;43.770;4.008;2023-02-24T06:12:19;16.07;;;9.57;;
13973;SDS011;7060;43.770;4.008;2023-02-24T06:14:49;21.70;;;9.20;;
13973;SDS011;7060;43.770;4.008;2023-02-24T06:17:19;19.90;;;10.10;;
13973;SDS011;7060;43.770;4.008;2023-02-24T06:19:48;25.00;;;9.73;;
13973;SDS011;7060;43.770;4.008;2023-02-24T06:22:19;16.43;;;9.53;;
13973;SDS011;7060;43.770;4.008;2023-02-24T06:24:51;22.20;;;9.07;;
13973;SDS011;7060;43.770;4.008;2023-02-24T06:27:21;19.67;;;8.40;;
13973;SDS011;7060;43.770;4.008;2023-02-24T06:29:51;18.33;;;8.60;;
13973;SDS011;7060;43.770;4.008;2023-02-24T06:32:22;23.00;;;10.87;;
13973;SDS011;7060;43.770;4.008;2023-02-24T06:34:53;24.73;;;9.07;;
13973;SDS011;7060;43.770;4.008;2023-02-24T06:37:23;27.83;;;9.40;;
13973;SDS011;7060;43.770;4.008;2023-02-24T06:39:53;23.30;;;10.63;;
13973;SDS011;7060;43.770;4.008;2023-02-24T06:42:21;22.90;;;10.77;;
13973;SDS011;7060;43.770;4.008;2023-02-24T06:44:49;27.80;;;11.07;;
13973;SDS011;7060;43.770;4.008;2023-02-24T06:47:18;24.80;;;8.33;;
13973;SDS011;7060;43.770;4.008;2023-02-24T06:49:48;20.67;;;9.67;;
13973;SDS011;7060;43.770;4.008;2023-02-24T06:52:18;22.53;;;10.10;;
13973;SDS011;7060;43.770;4.008;2023-02-24T06:54:47;19.63;;;8.97;;
13973;SDS011;7060;43.770;4.008;2023-02-24T06:57:19;18.17;;;9.77;;
13973;SDS011;7060;43.770;4.008;2023-02-24T06:59:49;18.37;;;8.73;;
13973;SDS011;7060;43.770;4.008;2023-02-24T07:02:17;18.53;;;10.03;;
13973;SDS011;7060;43.770;4.008;2023-02-24T07:04:46;23.83;;;10.20;;
13973;SDS011;7060;43.770;4.008;2023-02-24T07:07:14;21.93;;;11.33;;
13973;SDS011;7060;43.770;4.008;2023-02-24T07:09:44;25.20;;;12.07;;
13973;SDS011;7060;43.770;4.008;2023-02-24T07:12:12;28.37;;;11.53;;
13973;SDS011;7060;43.770;4.008;2023-02-24T07:14:48;24.73;;;12.87;;
13973;SDS011;7060;43.770;4.008;2023-02-24T07:17:17;22.30;;;11.00;;
13973;SDS011;7060;43.770;4.008;2023-02-24T07:19:46;28.73;;;10.80;;
13973;SDS011;7060;43.770;4.008;2023-02-24T07:22:15;22.40;;;10.20;;
13973;SDS011;7060;43.770;4.008;2023-02-24T07:24:50;22.10;;;11.00;;
13973;SDS011;7060;43.770;4.008;2023-02-24T07:27:26;34.70;;;13.70;;
13973;SDS011;7060;43.770;4.008;2023-02-24T07:29:56;30.00;;;13.53;;
13973;SDS011;7060;43.770;4.008;2023-02-24T07:32:25;28.53;;;14.43;;
13973;SDS011;7060;43.770;4.008;2023-02-24T07:34:53;30.20;;;14.53;;
13973;SDS011;7060;43.770;4.008;2023-02-24T07:37:23;30.53;;;14.33;;
13973;SDS011;7060;43.770;4.008;2023-02-24T07:39:51;31.43;;;14.83;;
13973;SDS011;7060;43.770;4.008;2023-02-24T07:42:19;33.37;;;15.43;;
13973;SDS011;7060;43.770;4.008;2023-02-24T07:44:52;40.03;;;14.47;;
13973;SDS011;7060;43.770;4.008;2023-02-24T07:47:25;28.50;;;15.20;;
13973;SDS011;7060;43.770;4.008;2023-02-24T07:49:53;35.77;;;15.63;;
13973;SDS011;7060;43.770;4.008;2023-02-24T07:52:22;35.23;;;16.00;;
13973;SDS011;7060;43.770;4.008;2023-02-24T07:54:50;27.63;;;15.40;;
13973;SDS011;7060;43.770;4.008;2023-02-24T07:57:20;42.43;;;16.70;;
13973;SDS011;7060;43.770;4.008;2023-02-24T07:59:50;33.57;;;18.53;;
13973;SDS011;7060;43.770;4.008;2023-02-24T08:02:19;30.33;;;17.10;;
13973;SDS011;7060;43.770;4.008;2023-02-24T08:04:50;40.90;;;17.30;;
13973;SDS011;7060;43.770;4.008;2023-02-24T08:07:19;29.23;;;14.93;;
13973;SDS011;7060;43.770;4.008;2023-02-24T08:09:51;32.43;;;16.27;;
13973;SDS011;7060;43.770;4.008;2023-02-24T08:12:50;31.87;;;15.53;;
13973;SDS011;7060;43.770;4.008;2023-02-24T08:15:21;29.73;;;16.13;;
13973;SDS011;7060;43.770;4.008;2023-02-24T08:17:51;37.60;;;16.83;;
13973;SDS011;7060;43.770;4.008;2023-02-24T08:20:27;40.27;;;16.57;;
13973;SDS011;7060;43.770;4.008;2023-02-24T08:23:02;29.63;;;15.80;;
13973;SDS011;7060;43.770;4.008;2023-02-24T08:25:34;37.87;;;16.73;;
13973;SDS011;7060;43.770;4.008;2023-02-24T08:28:03;34.23;;;17.53;;
13973;SDS011;7060;43.770;4.008;2023-02-24T08:30:38;32.40;;;18.97;;
13973;SDS011;7060;43.770;4.008;2023-02-24T08:33:12;28.13;;;15.30;;
13973;SDS011;7060;43.770;4.008;2023-02-24T08:35:50;34.67;;;15.00;;
13973;SDS011;7060;43.770;4.008;2023-02-24T08:38:27;31.17;;;14.30;;
13973;SDS011;7060;43.770;4.008;2023-02-24T08:41:06;22.03;;;14.93;;
13973;SDS011;7060;43.770;4.008;2023-02-24T08:43:44;27.27;;;15.17;;
13973;SDS011;7060;43.770;4.008;2023-02-24T08:46:14;26.07;;;15.03;;
13973;SDS011;7060;43.770;4.008;2023-02-24T08:48:46;24.03;;;14.00;;
13973;SDS011;7060;43.770;4.008;2023-02-24T08:51:21;34.67;;;15.63;;
13973;SDS011;7060;43.770;4.008;2023-02-24T08:53:55;26.87;;;13.73;;
13973;SDS011;7060;43.770;4.008;2023-02-24T08:56:25;32.43;;;14.10;;
13973;SDS011;7060;43.770;4.008;2023-02-24T08:58:55;29.17;;;13.20;;
13973;SDS011;7060;43.770;4.008;2023-02-24T09:01:32;23.07;;;14.27;;
13973;SDS011;7060;43.770;4.008;2023-02-24T09:04:02;36.53;;;13.80;;
13973;SDS011;7060;43.770;4.008;2023-02-24T09:06:36;27.67;;;13.27;;
13973;SDS011;7060;43.770;4.008;2023-02-24T09:09:06;30.63;;;13.53;;
13973;SDS011;7060;43.770;4.008;2023-02-24T09:11:45;31.47;;;12.37;;
13973;SDS011;7060;43.770;4.008;2023-02-24T09:14:16;28.90;;;11.93;;
13973;SDS011;7060;43.770;4.008;2023-02-24T09:16:54;22.33;;;12.17;;
13973;SDS011;7060;43.770;4.008;2023-02-24T09:19:36;21.60;;;11.10;;
13973;SDS011;7060;43.770;4.008;2023-02-24T09:22:24;26.80;;;10.93;;
13973;SDS011;7060;43.770;4.008;2023-02-24T09:25:07;22.77;;;11.63;;
13973;SDS011;7060;43.770;4.008;2023-02-24T09:27:48;26.30;;;12.13;;
13973;SDS011;7060;43.770;4.008;2023-02-24T09:30:23;19.70;;;10.47;;
13973;SDS011;7060;43.770;4.008;2023-02-24T09:33:04;30.30;;;11.63;;
13973;SDS011;7060;43.770;4.008;2023-02-24T09:35:44;28.17;;;12.13;;
13973;SDS011;7060;43.770;4.008;2023-02-24T09:38:16;32.03;;;12.03;;
13973;SDS011;7060;43.770;4.008;2023-02-24T09:40:47;29.17;;;12.40;;
13973;SDS011;7060;43.770;4.008;2023-02-24T09:43:18;27.80;;;11.10;;
13973;SDS011;7060;43.770;4.008;2023-02-24T09:45:52;23.50;;;11.57;;
13973;SDS011;7060;43.770;4.008;2023-02-24T09:48:33;29.10;;;13.27;;
13973;SDS011;7060;43.770;4.008;2023-02-24T09:51:10;22.93;;;12.07;;
13973;SDS011;7060;43.770;4.008;2023-02-24T09:53:50;26.30;;;11.87;;
13973;SDS011;7060;43.770;4.008;2023-02-24T09:56:25;28.27;;;13.87;;
13973;SDS011;7060;43.770;4.008;2023-02-24T09:59:05;29.87;;;13.03;;
13973;SDS011;7060;43.770;4.008;2023-02-24T10:01:42;28.23;;;14.03;;
13973;SDS011;7060;43.770;4.008;2023-02-24T10:04:33;29.70;;;13.83;;
13973;SDS011;7060;43.770;4.008;2023-02-24T10:07:16;29.03;;;14.27;;
13973;SDS011;7060;43.770;4.008;2023-02-24T10:09:50;35.57;;;12.67;;
13973;SDS011;7060;43.770;4.008;2023-02-24T10:12:31;19.63;;;10.57;;
13973;SDS011;7060;43.770;4.008;2023-02-24T10:15:08;26.53;;;12.97;;
13973;SDS011;7060;43.770;4.008;2023-02-24T10:18:17;23.57;;;11.33;;
13973;SDS011;7060;43.770;4.008;2023-02-24T10:20:55;26.23;;;10.57;;
13973;SDS011;7060;43.770;4.008;2023-02-24T10:23:37;23.20;;;10.90;;
13973;SDS011;7060;43.770;4.008;2023-02-24T10:26:14;23.67;;;10.20;;
13973;SDS011;7060;43.770;4.008;2023-02-24T10:28:59;24.33;;;10.80;;
13973;SDS011;7060;43.770;4.008;2023-02-24T10:31:37;27.57;;;10.50;;
13973;SDS011;7060;43.770;4.008;2023-02-24T10:34:14;24.57;;;9.60;;
13973;SDS011;7060;43.770;4.008;2023-02-24T10:36:48;23.73;;;9.73;;
13973;SDS011;7060;43.770;4.008;2023-02-24T10:39:17;21.83;;;10.30;;
13973;SDS011;7060;43.770;4.008;2023-02-24T10:41:53;30.10;;;10.00;;
13973;SDS011;7060;43.770;4.008;2023-02-24T10:44:24;20.43;;;10.07;;
13973;SDS011;7060;43.770;4.008;2023-02-24T10:47:03;25.57;;;10.47;;
13973;SDS011;7060;43.770;4.008;2023-02-24T10:49:39;27.93;;;11.10;;
13973;SDS011;7060;43.770;4.008;2023-02-24T10:52:23;30.63;;;11.03;;
13973;SDS011;7060;43.770;4.008;2023-02-24T10:55:12;31.20;;;11.03;;
13973;SDS011;7060;43.770;4.008;2023-02-24T10:57:59;21.20;;;10.20;;
13973;SDS011;7060;43.770;4.008;2023-02-24T11:00:39;22.03;;;7.63;;
13973;SDS011;7060;43.770;4.008;2023-02-24T11:03:38;14.93;;;5.97;;
13973;SDS011;7060;43.770;4.008;2023-02-24T11:06:17;15.27;;;5.50;;
13973;SDS011;7060;43.770;4.008;2023-02-24T11:08:56;11.37;;;4.97;;
13973;SDS011;7060;43.770;4.008;2023-02-24T11:11:45;11.63;;;4.20;;
13973;SDS011;7060;43.770;4.008;2023-02-24T11:14:33;14.67;;;5.00;;
13973;SDS011;7060;43.770;4.008;2023-02-24T11:17:30;11.83;;;4.83;;
13973;SDS011;7060;43.770;4.008;2023-02-24T11:19:59;11.40;;;4.13;;
13973;SDS011;7060;43.770;4.008;2023-02-24T11:22:37;10.67;;;4.23;;
13973;SDS011;7060;43.770;4.008;2023-02-24T11:25:11;10.80;;;3.80;;
13973;SDS011;7060;43.770;4.008;2023-02-24T11:27:44;12.03;;;4.63;;
13973;SDS011;7060;43.770;4.008;2023-02-24T11:30:19;9.37;;;3.87;;
13973;SDS011;7060;43.770;4.008;2023-02-24T11:32:59;15.17;;;4.13;;
13973;SDS011;7060;43.770;4.008;2023-02-24T11:35:44;7.37;;;4.00;;
13973;SDS011;7060;43.770;4.008;2023-02-24T11:38:19;11.47;;;4.23;;
13973;SDS011;7060;43.770;4.008;2023-02-24T11:40:59;9.40;;;4.53;;
13973;SDS011;7060;43.770;4.008;2023-02-24T11:43:33;11.33;;;4.80;;
13973;SDS011;7060;43.770;4.008;2023-02-24T11:46:10;11.83;;;5.20;;
13973;SDS011;7060;43.770;4.008;2023-02-24T11:48:44;10.63;;;4.00;;
13973;SDS011;7060;43.770;4.008;2023-02-24T11:51:17;7.10;;;4.13;;
13973;SDS011;7060;43.770;4.008;2023-02-24T11:53:51;12.63;;;4.97;;
13973;SDS011;7060;43.770;4.008;2023-02-24T11:56:24;7.63;;;3.30;;
13973;SDS011;7060;43.770;4.008;2023-02-24T11:58:58;18.07;;;9.23;;
13973;SDS011;7060;43.770;4.008;2023-02-24T12:01:36;20.40;;;10.17;;
13973;SDS011;7060;43.770;4.008;2023-02-24T12:04:11;19.43;;;8.57;;
13973;SDS011;7060;43.770;4.008;2023-02-24T12:06:49;17.67;;;8.60;;
13973;SDS011;7060;43.770;4.008;2023-02-24T12:09:25;13.80;;;6.17;;
13973;SDS011;7060;43.770;4.008;2023-02-24T12:11:57;17.07;;;7.07;;
13973;SDS011;7060;43.770;4.008;2023-02-24T12:14:34;15.33;;;6.27;;
13973;SDS011;7060;43.770;4.008;2023-02-24T12:17:13;12.27;;;4.37;;
13973;SDS011;7060;43.770;4.008;2023-02-24T12:19:51;11.77;;;4.40;;
13973;SDS011;7060;43.770;4.008;2023-02-24T12:22:25;10.87;;;3.80;;
13973;SDS011;7060;43.770;4.008;2023-02-24T12:25:00;13.27;;;3.57;;
13973;SDS011;7060;43.770;4.008;2023-02-24T12:27:36;8.60;;;3.83;;
13973;SDS011;7060;43.770;4.008;2023-02-24T12:30:28;14.43;;;4.50;;
13973;SDS011;7060;43.770;4.008;2023-02-24T12:33:23;10.63;;;3.77;;
13973;SDS011;7060;43.770;4.008;2023-02-24T12:35:59;11.87;;;3.57;;
13973;SDS011;7060;43.770;4.008;2023-02-24T12:38:35;14.97;;;4.10;;
13973;SDS011;7060;43.770;4.008;2023-02-24T12:41:18;9.87;;;3.67;;
13973;SDS011;7060;43.770;4.008;2023-02-24T12:44:05;14.30;;;3.43;;
13973;SDS011;7060;43.770;4.008;2023-02-24T12:46:43;12.63;;;4.17;;
13973;SDS011;7060;43.770;4.008;2023-02-24T12:49:24;9.50;;;3.27;;
13973;SDS011;7060;43.770;4.008;2023-02-24T12:52:04;8.77;;;4.07;;
13973;SDS011;7060;43.770;4.008;2023-02-24T12:54:43;7.37;;;3.50;;
13973;SDS011;7060;43.770;4.008;2023-02-24T12:57:21;7.83;;;2.67;;
13973;SDS011;7060;43.770;4.008;2023-02-24T12:59:54;7.33;;;3.00;;
13973;SDS011;7060;43.770;4.008;2023-02-24T13:02:27;8.70;;;2.70;;
13973;SDS011;7060;43.770;4.008;2023-02-24T13:05:08;5.70;;;3.07;;
13973;SDS011;7060;43.770;4.008;2023-02-24T13:08:06;7.53;;;3.10;;
13973;SDS011;7060;43.770;4.008;2023-02-24T13:10:45;8.80;;;3.17;;
13973;SDS011;7060;43.770;4.008;2023-02-24T13:13:18;7.27;;;2.90;;
13973;SDS011;7060;43.770;4.008;2023-02-24T13:15:55;13.30;;;3.63;;
13973;SDS011;7060;43.770;4.008;2023-02-24T13:18:26;11.87;;;4.27;;
13973;SDS011;7060;43.770;4.008;2023-02-24T13:21:02;10.60;;;4.37;;
13973;SDS011;7060;43.770;4.008;2023-02-24T13:23:33;12.97;;;5.10;;
13973;SDS011;7060;43.770;4.008;2023-02-24T13:26:03;9.53;;;4.30;;
13973;SDS011;7060;43.770;4.008;2023-02-24T13:28:32;12.27;;;5.23;;
13973;SDS011;7060;43.770;4.008;2023-02-24T13:31:04;10.07;;;4.70;;
13973;SDS011;7060;43.770;4.008;2023-02-24T13:33:35;13.90;;;5.50;;
13973;SDS011;7060;43.770;4.008;2023-02-24T13:36:12;13.27;;;5.90;;
13973;SDS011;7060;43.770;4.008;2023-02-24T13:38:48;9.93;;;4.27;;
13973;SDS011;7060;43.770;4.008;2023-02-24T13:41:20;7.33;;;3.77;;
13973;SDS011;7060;43.770;4.008;2023-02-24T13:44:20;10.23;;;3.77;;
13973;SDS011;7060;43.770;4.008;2023-02-24T13:46:56;9.53;;;3.60;;
13973;SDS011;7060;43.770;4.008;2023-02-24T13:49:49;9.30;;;4.67;;
13973;SDS011;7060;43.770;4.008;2023-02-24T13:52:32;10.97;;;5.10;;
13973;SDS011;7060;43.770;4.008;2023-02-24T13:58:13;9.33;;;4.27;;
13973;SDS011;7060;43.770;4.008;2023-02-24T14:01:01;11.30;;;4.20;;
13973;SDS011;7060;43.770;4.008;2023-02-24T14:03:34;8.87;;;4.57;;
13973;SDS011;7060;43.770;4.008;2023-02-24T14:06:05;10.30;;;5.00;;
13973;SDS011;7060;43.770;4.008;2023-02-24T14:08:38;10.63;;;5.20;;
13973;SDS011;7060;43.770;4.008;2023-02-24T14:11:10;13.70;;;6.00;;
13973;SDS011;7060;43.770;4.008;2023-02-24T14:13:43;11.73;;;5.13;;
13973;SDS011;7060;43.770;4.008;2023-02-24T14:16:16;9.00;;;3.90;;
13973;SDS011;7060;43.770;4.008;2023-02-24T14:18:51;17.73;;;8.87;;
13973;SDS011;7060;43.770;4.008;2023-02-24T14:21:22;12.10;;;4.93;;
13973;SDS011;7060;43.770;4.008;2023-02-24T14:23:56;7.27;;;3.33;;
13973;SDS011;7060;43.770;4.008;2023-02-24T14:26:25;8.07;;;3.00;;
13973;SDS011;7060;43.770;4.008;2023-02-24T14:28:55;8.67;;;3.00;;
13973;SDS011;7060;43.770;4.008;2023-02-24T14:31:27;4.60;;;3.10;;
13973;SDS011;7060;43.770;4.008;2023-02-24T14:33:57;7.10;;;2.67;;
13973;SDS011;7060;43.770;4.008;2023-02-24T14:36:27;9.23;;;6.07;;
13973;SDS011;7060;43.770;4.008;2023-02-24T14:39:01;10.23;;;4.70;;
13973;SDS011;7060;43.770;4.008;2023-02-24T14:41:35;6.63;;;3.83;;
13973;SDS011;7060;43.770;4.008;2023-02-24T14:44:05;8.40;;;3.70;;
13973;SDS011;7060;43.770;4.008;2023-02-24T14:46:46;7.10;;;3.63;;
13973;SDS011;7060;43.770;4.008;2023-02-24T14:49:17;8.77;;;4.27;;
13973;SDS011;7060;43.770;4.008;2023-02-24T14:51:52;7.60;;;2.93;;
13973;SDS011;7060;43.770;4.008;2023-02-24T14:54:31;5.17;;;2.13;;
13973;SDS011;7060;43.770;4.008;2023-02-24T14:57:07;7.90;;;2.53;;
13973;SDS011;7060;43.770;4.008;2023-02-24T14:59:39;7.33;;;2.10;;
13973;SDS011;7060;43.770;4.008;2023-02-24T15:02:11;3.37;;;1.70;;
13973;SDS011;7060;43.770;4.008;2023-02-24T15:04:45;5.50;;;2.00;;
13973;SDS011;7060;43.770;4.008;2023-02-24T15:07:15;9.23;;;2.43;;
13973;SDS011;7060;43.770;4.008;2023-02-24T15:09:48;3.27;;;1.33;;
13973;SDS011;7060;43.770;4.008;2023-02-24T15:12:20;7.43;;;1.80;;
13973;SDS011;7060;43.770;4.008;2023-02-24T15:14:55;4.20;;;2.00;;
13973;SDS011;7060;43.770;4.008;2023-02-24T15:17:27;16.30;;;3.50;;
13973;SDS011;7060;43.770;4.008;2023-02-24T15:19:56;7.97;;;1.80;;
13973;SDS011;7060;43.770;4.008;2023-02-24T15:22:25;5.20;;;2.20;;
13973;SDS011;7060;43.770;4.008;2023-02-24T15:25:08;4.13;;;1.90;;
13973;SDS011;7060;43.770;4.008;2023-02-24T15:27:48;9.57;;;2.30;;
13973;SDS011;7060;43.770;4.008;2023-02-24T15:30:25;6.27;;;2.07;;
13973;SDS011;7060;43.770;4.008;2023-02-24T15:32:59;4.50;;;2.37;;
13973;SDS011;7060;43.770;4.008;2023-02-24T15:35:29;6.67;;;2.03;;